createdAt,value
2023-02-18T00:02:12.844Z,57.61
2023-02-18T00:04:39.306Z,59.02
2023-02-18T00:07:05.713Z,58.73
2023-02-18T00:09:32.124Z,59.49
2023-02-18T00:11:58.585Z,59.78
2023-02-18T00:14:24.998Z,60.68
2023-02-18T00:16:52.148Z,59.27
2023-02-18T00:19:19.440Z,59.32
2023-02-18T00:21:45.958Z,60.67
2023-02-18T00:24:15.149Z,61.27
2023-02-18T00:26:41.782Z,60.65
2023-02-18T00:29:08.207Z,61.23
2023-02-18T00:31:36.053Z,60.62
2023-02-18T00:34:03.424Z,60.71
2023-02-18T00:36:29.880Z,59.50
2023-02-18T00:38:57.273Z,60.45
2023-02-18T00:41:24.203Z,60.07
2023-02-18T00:43:50.895Z,61.34
2023-02-18T00:46:19.351Z,61.89
2023-02-18T00:48:45.813Z,61.76
2023-02-18T00:51:12.222Z,63.33
2023-02-18T00:53:38.798Z,61.02
2023-02-18T00:56:05.766Z,61.37
2023-02-18T00:58:32.653Z,60.56
2023-02-18T01:00:59.286Z,59.95
2023-02-18T01:03:25.736Z,59.39
2023-02-18T01:05:52.526Z,58.99
2023-02-18T01:08:19.408Z,57.83
2023-02-18T01:10:46.484Z,57.47
2023-02-18T01:13:13.435Z,58.87
2023-02-18T01:15:40.249Z,57.23
2023-02-18T01:18:07.742Z,57.86
2023-02-18T01:20:34.923Z,57.84
2023-02-18T01:23:01.393Z,58.92
2023-02-18T01:25:27.972Z,58.52
2023-02-18T01:27:54.366Z,57.95
2023-02-18T01:30:22.457Z,58.12
2023-02-18T01:32:48.975Z,57.97
2023-02-18T01:35:15.972Z,58.16
2023-02-18T01:37:42.809Z,57.73
2023-02-18T01:40:10.561Z,58.21
2023-02-18T01:42:37.831Z,56.70
2023-02-18T01:45:22.977Z,58.57
2023-02-18T01:47:51.423Z,58.44
2023-02-18T01:50:17.868Z,57.20
2023-02-18T01:52:44.293Z,56.67
2023-02-18T01:55:10.690Z,57.39
2023-02-18T01:57:37.211Z,56.15
2023-02-18T02:00:06.287Z,57.78
2023-02-18T02:02:42.763Z,58.20
2023-02-18T02:05:09.157Z,56.64
2023-02-18T02:07:37.005Z,56.92
2023-02-18T02:10:03.520Z,58.75
2023-02-18T02:12:33.428Z,58.85
2023-02-18T02:15:18.769Z,59.18
2023-02-18T02:17:45.129Z,59.17
2023-02-18T02:20:30.378Z,59.66
2023-02-18T02:23:02.933Z,60.49
2023-02-18T02:25:49.558Z,59.14
2023-02-18T02:28:15.905Z,58.75
2023-02-18T02:30:56.489Z,60.81
2023-02-18T02:33:43.948Z,61.21
2023-02-18T02:36:18.750Z,59.47
2023-02-18T02:39:14.658Z,60.47
2023-02-18T02:41:47.288Z,59.55
2023-02-18T02:44:19.685Z,60.11
2023-02-18T02:46:51.659Z,60.31
2023-02-18T02:49:21.194Z,60.62
2023-02-18T02:51:54.188Z,59.43
2023-02-18T02:54:22.145Z,61.25
2023-02-18T02:56:48.565Z,60.86
2023-02-18T02:59:21.871Z,61.01
2023-02-18T03:01:54.396Z,61.01
2023-02-18T03:04:39.862Z,59.94
2023-02-18T03:07:15.866Z,60.34
2023-02-18T03:09:44.982Z,60.94
2023-02-18T03:12:14.466Z,60.16
2023-02-18T03:14:44.207Z,59.19
2023-02-18T03:17:23.069Z,59.36
2023-02-18T03:19:54.449Z,59.36
2023-02-18T03:22:22.208Z,59.39
2023-02-18T03:24:52.337Z,59.44
2023-02-18T03:27:20.326Z,60.63
2023-02-18T03:29:48.028Z,60.81
2023-02-18T03:32:16.082Z,61.04
2023-02-18T03:34:44.276Z,60.60
2023-02-18T03:37:16.870Z,60.58
2023-02-18T03:39:44.574Z,60.16
2023-02-18T03:42:21.457Z,60.91
2023-02-18T03:44:47.888Z,60.60
2023-02-18T03:47:14.298Z,60.22
2023-02-18T03:49:43.382Z,60.34
2023-02-18T03:52:09.863Z,60.52
2023-02-18T03:54:36.291Z,60.16
2023-02-18T03:57:02.840Z,60.00
2023-02-18T03:59:29.241Z,59.87
2023-02-18T04:01:55.661Z,59.84
2023-02-18T04:04:22.087Z,59.57
2023-02-18T04:06:48.522Z,59.11
2023-02-18T04:09:15.267Z,60.11
2023-02-18T04:11:41.762Z,60.36
2023-02-18T04:14:08.444Z,60.62
2023-02-18T04:16:34.939Z,59.88
2023-02-18T04:19:01.397Z,60.33
2023-02-18T04:21:27.828Z,60.48
2023-02-18T04:23:54.226Z,60.75
2023-02-18T04:26:20.697Z,61.25
2023-02-18T04:28:47.084Z,61.30
2023-02-18T04:31:13.714Z,61.24
2023-02-18T04:33:40.201Z,61.24
2023-02-18T04:36:07.737Z,62.34
2023-02-18T04:38:34.432Z,61.92
2023-02-18T04:41:03.010Z,61.27
2023-02-18T04:43:29.398Z,62.83
2023-02-18T04:45:56.133Z,63.00
2023-02-18T04:48:23.036Z,62.87
2023-02-18T04:50:49.465Z,62.48
2023-02-18T04:53:15.865Z,61.76
2023-02-18T04:55:42.262Z,61.27
2023-02-18T04:58:10.545Z,61.21
2023-02-18T05:00:36.955Z,60.67
2023-02-18T05:03:03.408Z,60.26
2023-02-18T05:05:29.961Z,60.03
2023-02-18T05:07:56.410Z,61.20
2023-02-18T05:10:22.810Z,59.57
2023-02-18T05:12:49.264Z,60.82
2023-02-18T05:15:15.858Z,60.24
2023-02-18T05:17:42.795Z,59.63
2023-02-18T05:20:10.454Z,59.75
2023-02-18T05:22:36.957Z,59.61
2023-02-18T05:25:03.340Z,59.50
2023-02-18T05:27:29.759Z,59.22
2023-02-18T05:29:56.147Z,58.95
2023-02-18T05:32:22.687Z,59.32
2023-02-18T05:34:49.087Z,59.88
2023-02-18T05:37:17.444Z,59.38
2023-02-18T05:39:44.325Z,59.98
2023-02-18T05:42:10.776Z,59.88
2023-02-18T05:44:37.153Z,59.95
2023-02-18T05:47:04.650Z,60.07
2023-02-18T05:49:31.471Z,60.06
2023-02-18T05:51:58.026Z,60.97
2023-02-18T05:54:24.430Z,58.79
2023-02-18T05:56:50.890Z,58.81
2023-02-18T05:59:17.463Z,59.04
2023-02-18T06:01:44.158Z,58.37
2023-02-18T06:04:10.601Z,58.51
2023-02-18T06:06:37.048Z,59.09
2023-02-18T06:09:03.691Z,60.71
2023-02-18T06:11:30.281Z,59.94
2023-02-18T06:13:56.677Z,59.89
2023-02-18T06:16:23.388Z,59.78
2023-02-18T06:18:49.957Z,60.20
2023-02-18T06:21:16.612Z,61.35
2023-02-18T06:23:43.012Z,61.60
2023-02-18T06:26:09.807Z,60.97
2023-02-18T06:28:36.446Z,60.64
2023-02-18T06:31:03.011Z,59.90
2023-02-18T06:33:29.483Z,60.22
2023-02-18T06:36:00.019Z,60.03
2023-02-18T06:38:26.543Z,60.61
2023-02-18T06:40:53.049Z,60.93
2023-02-18T06:43:20.219Z,62.01
2023-02-18T06:45:46.704Z,62.41
2023-02-18T06:48:13.206Z,62.44
2023-02-18T06:50:42.766Z,62.23
2023-02-18T06:53:09.502Z,62.17
2023-02-18T06:55:35.878Z,62.57
2023-02-18T06:58:02.622Z,63.29
2023-02-18T07:00:29.171Z,63.61
2023-02-18T07:02:55.830Z,64.11
2023-02-18T07:05:22.221Z,64.10
2023-02-18T07:07:49.169Z,63.68
2023-02-18T07:10:15.628Z,64.56
2023-02-18T07:12:42.049Z,63.90
2023-02-18T07:15:08.631Z,63.66
2023-02-18T07:17:35.099Z,63.55
2023-02-18T07:20:01.650Z,63.79
2023-02-18T07:22:28.075Z,63.21
2023-02-18T07:24:54.469Z,62.57
2023-02-18T07:27:21.229Z,62.73
2023-02-18T07:29:49.696Z,62.11
2023-02-18T07:32:18.077Z,62.61
2023-02-18T07:34:45.439Z,62.47
2023-02-18T07:37:12.531Z,63.89
2023-02-18T07:39:42.794Z,64.06
2023-02-18T07:42:09.674Z,63.66
2023-02-18T07:44:36.201Z,64.90
2023-02-18T07:47:02.752Z,64.16
2023-02-18T07:49:29.150Z,65.13
2023-02-18T07:51:57.328Z,64.94
2023-02-18T07:54:23.839Z,64.42
2023-02-18T07:56:50.332Z,63.36
2023-02-18T07:59:16.747Z,62.60
2023-02-18T08:01:51.241Z,62.48
2023-02-18T08:04:18.453Z,62.91
2023-02-18T08:06:46.212Z,63.10
2023-02-18T08:09:16.463Z,62.24
2023-02-18T08:11:44.577Z,63.76
2023-02-18T08:14:11.183Z,62.07
2023-02-18T08:16:40.961Z,61.84
2023-02-18T08:19:08.058Z,62.39
2023-02-18T08:21:34.816Z,60.80
2023-02-18T08:24:08.067Z,60.77
2023-02-18T08:26:34.768Z,60.33
2023-02-18T08:29:01.165Z,61.09
2023-02-18T08:31:28.332Z,61.75
2023-02-18T08:33:55.410Z,60.81
2023-02-18T08:36:21.933Z,60.27
2023-02-18T08:38:48.372Z,60.77
2023-02-18T08:41:15.727Z,59.68
2023-02-18T08:43:42.417Z,60.00
2023-02-18T08:46:16.185Z,59.60
2023-02-18T08:48:53.638Z,59.31
2023-02-18T08:51:20.835Z,59.07
2023-02-18T08:53:47.444Z,58.87
2023-02-18T08:56:14.678Z,58.79
2023-02-18T08:58:41.313Z,59.29
2023-02-18T09:01:08.909Z,58.44
2023-02-18T09:03:35.569Z,58.72
2023-02-18T09:06:04.482Z,57.27
2023-02-18T09:08:31.325Z,57.80
2023-02-18T09:10:58.626Z,57.73
2023-02-18T09:13:25.651Z,57.78
2023-02-18T09:16:14.446Z,57.11
2023-02-18T09:18:50.722Z,57.58
2023-02-18T09:21:21.322Z,57.37
2023-02-18T09:23:59.664Z,56.48
2023-02-18T09:26:45.809Z,57.31
2023-02-18T09:29:14.257Z,56.94
2023-02-18T09:31:41.053Z,57.20
2023-02-18T09:34:07.618Z,56.54
2023-02-18T09:36:48.647Z,56.52
2023-02-18T09:39:15.824Z,56.46
2023-02-18T09:41:52.622Z,55.62
2023-02-18T09:44:31.254Z,56.10
2023-02-18T09:47:05.658Z,55.70
2023-02-18T09:49:34.366Z,55.59
2023-02-18T09:52:17.799Z,55.76
2023-02-18T09:54:44.448Z,55.77
2023-02-18T09:57:15.971Z,55.57
2023-02-18T09:59:45.239Z,54.70
2023-02-18T10:02:12.208Z,55.35
2023-02-18T10:04:40.887Z,55.42
2023-02-18T10:07:08.901Z,55.99
2023-02-18T10:09:42.019Z,55.97
2023-02-18T10:12:15.531Z,55.63
2023-02-18T10:14:49.454Z,54.58
2023-02-18T10:17:16.048Z,54.53
2023-02-18T10:19:42.546Z,54.22
2023-02-18T10:22:09.236Z,54.23
2023-02-18T10:24:36.534Z,54.37
2023-02-18T10:27:04.107Z,54.82
2023-02-18T10:29:32.224Z,54.30
2023-02-18T10:32:12.937Z,54.60
2023-02-18T10:34:43.548Z,53.90
2023-02-18T10:37:12.803Z,53.55
2023-02-18T10:39:48.303Z,53.31
2023-02-18T10:42:34.700Z,52.95
2023-02-18T10:45:04.074Z,54.17
2023-02-18T10:47:40.373Z,53.63
2023-02-18T10:50:13.837Z,53.55
2023-02-18T10:52:44.456Z,52.83
2023-02-18T10:55:12.338Z,52.95
2023-02-18T10:57:52.216Z,52.70
2023-02-18T11:00:20.390Z,53.24
2023-02-18T11:02:47.509Z,53.21
2023-02-18T11:05:17.455Z,53.10
2023-02-18T11:07:45.051Z,52.55
2023-02-18T11:10:18.799Z,53.52
2023-02-18T11:12:46.643Z,53.17
2023-02-18T11:15:19.145Z,52.49
2023-02-18T11:17:46.867Z,51.79
2023-02-18T11:20:25.349Z,51.70
2023-02-18T11:22:52.185Z,51.43
2023-02-18T11:25:22.677Z,51.69
2023-02-18T11:27:50.332Z,50.99
2023-02-18T11:30:16.810Z,51.27
2023-02-18T11:32:43.309Z,52.25
2023-02-18T11:35:16.662Z,51.77
2023-02-18T11:37:43.062Z,50.30
2023-02-18T11:40:19.493Z,50.88
2023-02-18T11:42:45.986Z,50.97
2023-02-18T11:45:26.392Z,51.09
2023-02-18T11:47:58.987Z,50.00
2023-02-18T11:50:25.379Z,49.33
2023-02-18T11:52:51.938Z,50.55
2023-02-18T11:55:22.549Z,49.94
2023-02-18T11:57:56.258Z,50.35
2023-02-18T12:00:37.268Z,51.68
2023-02-18T12:03:05.550Z,51.58
2023-02-18T12:05:31.958Z,51.62
2023-02-18T12:07:59.391Z,50.95
2023-02-18T12:10:26.387Z,51.18
2023-02-18T12:13:15.258Z,50.82
2023-02-18T12:15:44.770Z,49.91
2023-02-18T12:18:20.431Z,50.33
2023-02-18T12:20:46.799Z,49.98
2023-02-18T12:23:25.338Z,50.03
2023-02-18T12:26:03.961Z,51.37
2023-02-18T12:28:30.546Z,50.07
2023-02-18T12:31:03.059Z,50.74
2023-02-18T12:33:29.962Z,52.04
2023-02-18T12:36:11.983Z,51.28
2023-02-18T12:38:44.506Z,51.39
2023-02-18T12:41:26.298Z,50.40
2023-02-18T12:44:13.010Z,51.43
2023-02-18T12:46:59.653Z,51.71
2023-02-18T12:49:35.287Z,51.10
2023-02-18T12:52:04.732Z,51.13
2023-02-18T12:54:44.043Z,51.10
2023-02-18T12:57:29.199Z,51.68
2023-02-18T13:00:01.492Z,50.48
2023-02-18T13:02:39.911Z,51.34
2023-02-18T13:05:15.218Z,51.96
2023-02-18T13:07:51.536Z,51.55
2023-02-18T13:10:20.705Z,50.71
2023-02-18T13:12:55.224Z,50.94
2023-02-18T13:15:23.742Z,51.17
2023-02-18T13:17:50.234Z,50.90
2023-02-18T13:20:32.485Z,51.06
2023-02-18T13:22:58.892Z,50.81
2023-02-18T13:25:25.295Z,50.93
2023-02-18T13:28:10.715Z,50.17
2023-02-18T13:30:45.415Z,50.45
2023-02-18T13:33:14.901Z,50.57
2023-02-18T13:35:43.348Z,50.35
2023-02-18T13:38:12.785Z,50.20
2023-02-18T13:40:41.529Z,49.02
2023-02-18T13:43:26.767Z,50.95
2023-02-18T13:46:14.299Z,50.11
2023-02-18T13:48:52.588Z,50.20
2023-02-18T13:51:29.896Z,50.58
2023-02-18T13:54:17.627Z,50.94
2023-02-18T13:56:44.652Z,50.46
2023-02-18T13:59:12.893Z,48.70
2023-02-18T14:01:45.494Z,49.74
2023-02-18T14:04:31.000Z,48.84
2023-02-18T14:07:17.720Z,49.02
2023-02-18T14:09:44.858Z,49.35
2023-02-18T14:12:24.257Z,49.01
2023-02-18T14:14:50.793Z,48.71
2023-02-18T14:17:20.183Z,49.62
2023-02-18T14:19:55.765Z,49.16
2023-02-18T14:22:42.413Z,50.09
2023-02-18T14:25:08.760Z,49.66
2023-02-18T14:27:35.738Z,48.60
2023-02-18T14:30:04.393Z,50.42
2023-02-18T14:32:30.920Z,49.35
2023-02-18T14:35:06.651Z,49.71
2023-02-18T14:37:42.335Z,50.04
2023-02-18T14:40:23.213Z,49.84
2023-02-18T14:43:01.834Z,48.57
2023-02-18T14:45:43.539Z,49.58
2023-02-18T14:48:18.494Z,51.05
2023-02-18T14:50:45.875Z,51.15
2023-02-18T14:53:18.369Z,51.12
2023-02-18T14:55:47.138Z,50.84
2023-02-18T14:58:17.023Z,51.39
2023-02-18T15:00:43.638Z,50.85
2023-02-18T15:03:13.603Z,51.94
2023-02-18T15:05:40.006Z,52.28
2023-02-18T15:08:10.793Z,50.97
2023-02-18T15:10:47.494Z,52.22
2023-02-18T15:13:33.143Z,51.43
2023-02-18T15:16:03.659Z,52.60
2023-02-18T15:18:31.844Z,52.50
2023-02-18T15:21:00.140Z,52.81
2023-02-18T15:23:26.535Z,52.35
2023-02-18T15:25:53.154Z,53.08
2023-02-18T15:28:30.595Z,52.20
2023-02-18T15:31:00.985Z,53.58
2023-02-18T15:33:27.901Z,53.39
2023-02-18T15:36:02.065Z,52.68
2023-02-18T15:38:28.818Z,53.83
2023-02-18T15:40:55.416Z,53.36
2023-02-18T15:43:22.518Z,53.89
2023-02-18T15:45:49.945Z,53.09
2023-02-18T15:48:31.306Z,54.23
2023-02-18T15:51:14.635Z,53.04
2023-02-18T15:53:43.276Z,52.98
2023-02-18T15:56:10.287Z,53.90
2023-02-18T15:58:36.713Z,54.37
2023-02-18T16:01:04.456Z,54.70
2023-02-18T16:03:44.774Z,55.13
2023-02-18T16:06:30.340Z,54.42
2023-02-18T16:08:59.637Z,53.88
2023-02-18T16:11:26.498Z,55.13
2023-02-18T16:13:52.948Z,55.26
2023-02-18T16:16:24.338Z,55.56
2023-02-18T16:18:50.745Z,56.17
2023-02-18T16:21:17.508Z,55.95
2023-02-18T16:23:45.161Z,55.42
2023-02-18T16:26:22.417Z,56.19
2023-02-18T16:28:50.372Z,56.19
2023-02-18T16:31:17.188Z,56.60
2023-02-18T16:33:43.656Z,55.26
2023-02-18T16:36:12.324Z,55.38
2023-02-18T16:38:38.746Z,55.01
2023-02-18T16:41:05.395Z,55.29
2023-02-18T16:43:33.136Z,55.90
2023-02-18T16:46:00.029Z,56.65
2023-02-18T16:48:36.994Z,56.18
2023-02-18T16:51:05.245Z,56.39
2023-02-18T16:53:31.694Z,55.40
2023-02-18T16:55:58.186Z,55.57
2023-02-18T16:58:25.342Z,55.56
2023-02-18T17:00:52.683Z,55.62
2023-02-18T17:03:19.710Z,55.33
2023-02-18T17:05:46.291Z,56.56
2023-02-18T17:08:12.796Z,55.47
2023-02-18T17:10:39.764Z,56.76
2023-02-18T17:13:06.507Z,56.83
2023-02-18T17:15:38.366Z,56.55
2023-02-18T17:18:05.767Z,56.71
2023-02-18T17:20:33.023Z,56.18
2023-02-18T17:23:00.191Z,54.84
2023-02-18T17:25:30.883Z,55.53
2023-02-18T17:27:57.953Z,56.89
2023-02-18T17:30:28.151Z,56.95
2023-02-18T17:32:55.589Z,57.03
2023-02-18T17:35:23.181Z,58.13
2023-02-18T17:37:52.514Z,56.98
2023-02-18T17:40:20.795Z,57.19
2023-02-18T17:42:47.615Z,57.71
2023-02-18T17:45:17.550Z,57.18
2023-02-18T17:47:44.683Z,56.87
2023-02-18T17:50:11.350Z,56.52
2023-02-18T17:52:38.446Z,56.02
2023-02-18T17:58:17.971Z,55.82
2023-02-18T18:00:45.965Z,57.29
2023-02-18T18:03:12.940Z,57.06
2023-02-18T18:05:40.185Z,55.89
2023-02-18T18:08:09.446Z,54.82
2023-02-18T18:10:36.936Z,56.62
2023-02-18T18:13:04.722Z,56.82
2023-02-18T18:15:34.140Z,55.25
2023-02-18T18:18:00.601Z,56.57
2023-02-18T18:20:28.186Z,56.53
2023-02-18T18:22:55.325Z,57.29
2023-02-18T18:25:26.398Z,57.07
2023-02-18T18:27:53.879Z,59.03
2023-02-18T18:30:21.685Z,59.12
2023-02-18T18:32:48.174Z,57.63
2023-02-18T18:35:19.486Z,57.57
2023-02-18T18:37:45.901Z,59.10
2023-02-18T18:40:12.327Z,57.95
2023-02-18T18:42:38.776Z,57.40
2023-02-18T18:45:05.440Z,58.10
2023-02-18T18:47:31.862Z,58.28
2023-02-18T18:49:58.291Z,57.91
2023-02-18T18:52:25.015Z,57.49
2023-02-18T18:54:51.430Z,58.02
2023-02-18T18:57:17.855Z,58.59
2023-02-18T18:59:44.271Z,56.78
2023-02-18T19:02:14.980Z,57.88
2023-02-18T19:04:41.376Z,57.78
2023-02-18T19:07:07.805Z,58.87
2023-02-18T19:09:34.216Z,57.57
2023-02-18T19:12:00.643Z,60.42
2023-02-18T19:14:27.113Z,58.13
2023-02-18T19:16:56.120Z,59.90
2023-02-18T19:19:24.588Z,59.89
2023-02-18T19:21:53.430Z,61.68
2023-02-18T19:24:19.871Z,64.62
2023-02-18T19:26:46.270Z,65.70
2023-02-18T19:29:15.774Z,66.19
2023-02-18T19:31:44.768Z,67.64
2023-02-18T19:34:11.457Z,67.68
2023-02-18T19:36:37.970Z,69.48
2023-02-18T19:39:04.642Z,69.92
2023-02-18T19:41:31.287Z,69.52
2023-02-18T19:43:58.027Z,70.33
2023-02-18T19:46:24.463Z,71.30
2023-02-18T19:48:52.331Z,71.73
2023-02-18T19:51:19.584Z,70.93
2023-02-18T19:53:46.207Z,71.67
2023-02-18T19:56:12.619Z,72.31
2023-02-18T19:58:42.132Z,73.68
2023-02-18T20:01:15.452Z,73.78
2023-02-18T20:03:42.543Z,75.06
2023-02-18T20:06:27.356Z,75.53
2023-02-18T20:08:57.157Z,76.01
2023-02-18T20:11:23.596Z,75.63
2023-02-18T20:13:50.264Z,74.38
2023-02-18T20:16:16.711Z,73.12
2023-02-18T20:18:43.302Z,71.87
2023-02-18T20:21:10.722Z,72.58
2023-02-18T20:23:37.337Z,74.41
2023-02-18T20:26:07.889Z,71.29
2023-02-18T20:28:34.335Z,74.04
2023-02-18T20:31:05.054Z,74.64
2023-02-18T20:33:32.245Z,73.87
2023-02-18T20:35:58.670Z,74.05
2023-02-18T20:38:25.118Z,72.89
2023-02-18T20:40:51.546Z,73.50
2023-02-18T20:43:17.979Z,74.05
2023-02-18T20:45:44.403Z,75.02
2023-02-18T20:48:10.993Z,75.41
2023-02-18T20:50:37.426Z,73.56
2023-02-18T20:53:04.236Z,73.89
2023-02-18T20:55:30.754Z,73.08
2023-02-18T20:57:57.286Z,74.59
2023-02-18T21:00:23.865Z,73.35
2023-02-18T21:02:50.473Z,73.13
2023-02-18T21:05:16.930Z,73.78
2023-02-18T21:07:43.566Z,73.43
2023-02-18T21:10:10.038Z,73.61
2023-02-18T21:12:36.497Z,72.27
2023-02-18T21:15:02.903Z,70.81
2023-02-18T21:17:29.322Z,72.84
2023-02-18T21:19:55.747Z,74.18
2023-02-18T21:22:22.246Z,71.54
2023-02-18T21:24:50.584Z,72.86
2023-02-18T21:27:16.983Z,73.40
2023-02-18T21:29:43.470Z,74.71
2023-02-18T21:32:10.080Z,73.89
2023-02-18T21:34:36.765Z,72.88
2023-02-18T21:37:03.525Z,74.85
2023-02-18T21:39:29.951Z,74.34
2023-02-18T21:41:57.188Z,74.34
2023-02-18T21:44:32.930Z,72.72
2023-02-18T21:47:06.853Z,73.42
2023-02-18T21:49:33.383Z,74.20
2023-02-18T21:52:02.000Z,71.97
2023-02-18T21:54:32.305Z,71.09
2023-02-18T21:56:59.056Z,73.01
2023-02-18T21:59:29.452Z,74.57
2023-02-18T22:01:56.262Z,73.16
2023-02-18T22:04:22.863Z,73.66
2023-02-18T22:06:49.303Z,73.24
2023-02-18T22:09:15.741Z,73.85
2023-02-18T22:11:42.838Z,75.02
2023-02-18T22:14:13.136Z,74.09
2023-02-18T22:16:39.920Z,73.98
2023-02-18T22:19:06.453Z,74.77
2023-02-18T22:21:32.958Z,74.31
2023-02-18T22:23:59.357Z,72.81
2023-02-18T22:26:25.794Z,73.10
2023-02-18T22:28:55.783Z,74.56
2023-02-18T22:31:22.913Z,72.66
2023-02-18T22:33:51.522Z,72.94
2023-02-18T22:36:18.803Z,73.16
2023-02-18T22:38:45.226Z,73.92
2023-02-18T22:41:12.442Z,74.84
2023-02-18T22:43:39.197Z,74.79
2023-02-18T22:46:07.102Z,73.35
2023-02-18T22:48:34.036Z,72.26
2023-02-18T22:51:08.001Z,73.85
2023-02-18T22:53:34.761Z,74.52
2023-02-18T22:56:02.235Z,73.79
2023-02-18T22:58:28.676Z,73.58
2023-02-18T23:00:55.111Z,72.33
2023-02-18T23:03:21.557Z,73.64
2023-02-18T23:05:48.099Z,73.88
2023-02-18T23:08:15.467Z,73.83
2023-02-18T23:10:42.062Z,72.92
2023-02-18T23:13:08.516Z,74.29
2023-02-18T23:15:35.056Z,73.29
2023-02-18T23:18:01.510Z,73.29
2023-02-18T23:20:47.755Z,74.01
2023-02-18T23:23:14.192Z,71.99
2023-02-18T23:25:40.718Z,72.00
2023-02-18T23:28:07.176Z,72.86
2023-02-18T23:30:33.837Z,74.46
2023-02-18T23:33:00.310Z,73.32
2023-02-18T23:35:26.850Z,72.41
2023-02-18T23:38:05.720Z,74.12
2023-02-18T23:40:32.421Z,73.80
2023-02-18T23:42:58.937Z,74.31
2023-02-18T23:45:25.386Z,74.83
2023-02-18T23:47:51.870Z,74.42
2023-02-18T23:50:18.843Z,75.37
2023-02-18T23:52:46.671Z,73.37
2023-02-18T23:55:13.121Z,73.79
2023-02-18T23:57:39.602Z,73.33
